Time;durP1;ratioP1;P1;durP2;ratioP2;P2;SDS_P1;SDS_P2;PMS_P1;PMS_P2;Temp;Humidity;BMP_temperature;BMP_pressure;BME280_temperature;BME280_humidity;BME280_pressure;Samples;Min_cycle;Max_cycle;Signal;HPM_P1;HPM_P2
2021/04/21 00:00:12;;;;;;;23.00;12.43;;;8.10;65.70;;;;;;5052048;28;20235;-68
2021/04/21 00:02:39;;;;;;;20.55;11.75;;;8.10;65.70;;;;;;5051809;28;20508;-67
2021/04/21 00:05:07;;;;;;;19.95;11.90;;;8.10;65.70;;;;;;5051313;28;20036;-68
2021/04/21 00:07:35;;;;;;;20.92;12.02;;;8.20;65.60;;;;;;5051608;28;20029;-68
2021/04/21 00:10:04;;;;;;;18.73;10.80;;;8.10;65.50;;;;;;5052071;28;20397;-68
2021/04/21 00:12:30;;;;;;;21.23;12.23;;;8.10;65.50;;;;;;5073572;28;20052;-68
2021/04/21 00:14:57;;;;;;;19.50;11.65;;;8.10;65.50;;;;;;5063427;28;20496;-68
2021/04/21 00:17:24;;;;;;;20.33;12.13;;;8.10;65.60;;;;;;5051436;28;20071;-68
2021/04/21 00:19:53;;;;;;;24.10;13.23;;;8.10;65.60;;;;;;5051481;28;20103;-68
2021/04/21 00:22:21;;;;;;;22.73;13.50;;;8.10;65.70;;;;;;5051538;28;20115;-68
2021/04/21 00:24:49;;;;;;;21.17;13.27;;;8.10;65.90;;;;;;5053266;28;20037;-67
2021/04/21 00:27:17;;;;;;;21.27;13.38;;;8.10;65.80;;;;;;5051609;28;20489;-68
2021/04/21 00:29:49;;;;;;;21.42;13.13;;;8.00;65.60;;;;;;5051240;28;20086;-67
2021/04/21 00:32:17;;;;;;;20.38;13.02;;;7.90;65.70;;;;;;5049841;28;20021;-67
2021/04/21 00:34:44;;;;;;;24.58;13.15;;;7.80;65.80;;;;;;5050900;28;20033;-69
2021/04/21 00:37:12;;;;;;;24.58;14.10;;;7.80;66.20;;;;;;5051877;28;20059;-67
2021/04/21 00:39:41;;;;;;;21.63;13.75;;;7.80;66.30;;;;;;5050784;28;20056;-69
2021/04/21 00:42:17;;;;;;;23.05;14.05;;;7.80;66.40;;;;;;5048728;28;20393;-67
2021/04/21 00:44:57;;;;;;;25.27;15.18;;;7.80;66.50;;;;;;5067416;28;20048;-68
2021/04/21 00:47:30;;;;;;;24.35;15.25;;;7.70;66.50;;;;;;5043643;28;20028;-67
2021/04/21 00:50:11;;;;;;;22.00;14.48;;;7.60;66.30;;;;;;5051593;28;20029;-68
2021/04/21 00:52:47;;;;;;;22.38;14.88;;;7.50;66.70;;;;;;5051727;28;20481;-67
2021/04/21 00:56:04;;;;;;;27.95;17.08;;;7.40;67.00;;;;;;5042176;28;20033;-66
2021/04/21 00:58:43;;;;;;;28.35;18.05;;;7.40;67.00;;;;;;5017115;28;20048;-68
2021/04/21 01:01:12;;;;;;;30.83;18.40;;;7.30;67.00;;;;;;5051265;28;20049;-67
2021/04/21 01:03:40;;;;;;;34.10;20.65;;;7.20;67.30;;;;;;5051132;28;20116;-67
2021/04/21 01:06:10;;;;;;;33.17;20.17;;;7.00;67.30;;;;;;5050122;28;20043;-68
2021/04/21 01:08:44;;;;;;;38.38;20.85;;;6.90;67.80;;;;;;5050885;28;20078;-67
2021/04/21 01:11:39;;;;;;;33.47;21.02;;;6.80;68.00;;;;;;5053482;28;20025;-67
2021/04/21 01:14:27;;;;;;;33.55;19.60;;;6.70;68.30;;;;;;5054176;28;20021;-67
2021/04/21 01:16:58;;;;;;;29.67;19.60;;;6.70;68.40;;;;;;5050662;28;20097;-68
2021/04/21 01:19:31;;;;;;;30.92;18.38;;;6.80;68.50;;;;;;5050310;28;20199;-69
2021/04/21 01:22:14;;;;;;;29.15;19.35;;;6.80;68.80;;;;;;5050488;28;20047;-69
2021/04/21 01:24:51;;;;;;;26.58;17.42;;;6.90;68.80;;;;;;5048559;28;20025;-68
2021/04/21 01:27:20;;;;;;;30.65;18.60;;;7.00;68.60;;;;;;5050458;28;20412;-68
2021/04/21 01:29:52;;;;;;;31.63;19.95;;;7.00;68.60;;;;;;5050116;28;20043;-69
2021/04/21 01:32:24;;;;;;;31.45;18.27;;;7.00;68.60;;;;;;5050127;28;20059;-69
2021/04/21 01:34:53;;;;;;;29.13;17.85;;;7.00;68.40;;;;;;5049826;28;20128;-69
2021/04/21 01:37:25;;;;;;;30.02;17.77;;;7.00;68.40;;;;;;5051475;28;20036;-68
2021/04/21 01:40:04;;;;;;;30.45;17.77;;;7.00;68.50;;;;;;5049884;28;20067;-68
2021/04/21 01:42:35;;;;;;;26.63;16.58;;;6.90;68.50;;;;;;5062873;28;20067;-68
2021/04/21 01:45:02;;;;;;;27.50;17.33;;;6.80;68.50;;;;;;5031822;28;20032;-68
2021/04/21 01:47:28;;;;;;;26.27;16.58;;;6.80;68.60;;;;;;5056752;28;20044;-69
2021/04/21 01:50:00;;;;;;;29.73;17.15;;;6.80;68.70;;;;;;5049951;28;20025;-68
2021/04/21 01:52:37;;;;;;;25.10;16.63;;;6.80;68.80;;;;;;5049633;28;20036;-68
2021/04/21 01:55:21;;;;;;;29.70;16.55;;;6.90;68.60;;;;;;5049028;28;20035;-68
2021/04/21 01:57:57;;;;;;;27.55;17.15;;;6.90;68.60;;;;;;5049327;28;20119;-68
2021/04/21 02:00:47;;;;;;;25.27;16.88;;;6.90;68.50;;;;;;5049840;28;20047;-68
2021/04/21 02:03:42;;;;;;;23.48;15.50;;;6.90;68.50;;;;;;5049749;28;20481;-68
2021/04/21 02:06:31;;;;;;;26.58;16.27;;;7.00;68.30;;;;;;5045969;28;20048;-69
2021/04/21 02:08:57;;;;;;;26.25;15.68;;;7.00;68.20;;;;;;5049088;28;20444;-68
2021/04/21 02:11:25;;;;;;;22.95;14.80;;;7.00;68.00;;;;;;5053517;28;20029;-70
2021/04/21 02:13:57;;;;;;;20.58;12.43;;;7.00;68.00;;;;;;5047836;28;20055;-68
2021/04/21 02:16:29;;;;;;;19.15;12.15;;;6.90;68.00;;;;;;5046193;28;20030;-69
2021/04/21 02:19:27;;;;;;;22.98;12.43;;;6.90;67.90;;;;;;5064563;28;20091;-68
2021/04/21 02:22:25;;;;;;;21.70;12.07;;;6.80;68.20;;;;;;5026228;28;20493;-68
2021/04/21 02:25:05;;;;;;;19.83;12.45;;;6.90;68.10;;;;;;5048478;28;20072;-68
2021/04/21 02:27:56;;;;;;;20.80;12.43;;;6.80;68.00;;;;;;5049285;28;20544;-68
2021/04/21 02:30:31;;;;;;;19.45;10.90;;;6.80;68.00;;;;;;5049291;28;20028;-69
2021/04/21 02:33:04;;;;;;;20.00;11.57;;;6.70;68.00;;;;;;5049353;28;20025;-68
2021/04/21 02:35:47;;;;;;;18.20;12.00;;;6.70;68.10;;;;;;5048790;28;20478;-69
2021/04/21 02:38:39;;;;;;;23.42;12.68;;;6.60;68.10;;;;;;5043267;28;20030;-68
2021/04/21 02:41:04;;;;;;;19.02;11.75;;;6.60;68.20;;;;;;5048706;28;20026;-69
2021/04/21 02:44:00;;;;;;;18.35;11.43;;;6.60;68.20;;;;;;5048190;28;20469;-68
2021/04/21 02:46:25;;;;;;;19.10;11.73;;;6.60;68.10;;;;;;5048979;28;20060;-69
2021/04/21 02:49:30;;;;;;;22.20;11.45;;;6.50;68.00;;;;;;5053471;28;20460;-69
2021/04/21 02:51:59;;;;;;;19.13;10.82;;;6.40;68.10;;;;;;5052027;28;20040;-68
2021/04/21 02:54:46;;;;;;;19.13;11.50;;;6.40;68.30;;;;;;5052189;28;20477;-69
2021/04/21 02:57:30;;;;;;;18.02;11.20;;;6.30;68.20;;;;;;5051115;28;20032;-68
2021/04/21 03:00:15;;;;;;;20.33;11.77;;;6.30;68.30;;;;;;5053247;28;20166;-68
2021/04/21 03:02:53;;;;;;;20.15;11.70;;;6.20;68.40;;;;;;5052840;28;20024;-69
2021/04/21 03:05:28;;;;;;;19.42;11.93;;;6.20;68.40;;;;;;5052490;28;20112;-68
2021/04/21 03:08:16;;;;;;;22.92;12.63;;;6.30;68.50;;;;;;5052285;28;20029;-68
2021/04/21 03:11:09;;;;;;;22.52;13.70;;;6.20;68.40;;;;;;5051538;28;20048;-68
2021/04/21 03:14:09;;;;;;;24.77;14.77;;;6.20;68.40;;;;;;5035886;28;20051;-68
2021/04/21 03:16:38;;;;;;;23.52;12.75;;;6.20;68.40;;;;;;5011821;28;20478;-68
2021/04/21 03:19:07;;;;;;;21.67;12.73;;;6.20;68.60;;;;;;5032754;28;20378;-68
2021/04/21 03:22:00;;;;;;;21.15;12.02;;;6.10;68.70;;;;;;5038820;28;20045;-68
2021/04/21 03:24:33;;;;;;;23.77;13.75;;;6.10;68.70;;;;;;5032426;28;20053;-68
2021/04/21 03:27:04;;;;;;;23.25;12.57;;;6.10;68.70;;;;;;5052284;28;20478;-68
2021/04/21 03:29:42;;;;;;;19.73;12.43;;;6.00;68.80;;;;;;5052612;28;20028;-68
2021/04/21 03:32:14;;;;;;;20.17;11.98;;;6.10;69.00;;;;;;5052466;28;20033;-68
2021/04/21 03:34:42;;;;;;;22.00;12.32;;;6.10;68.90;;;;;;5051926;28;20021;-68
2021/04/21 03:37:33;;;;;;;21.88;12.32;;;6.00;68.70;;;;;;5051485;28;20061;-68
2021/04/21 03:39:59;;;;;;;23.77;13.20;;;6.10;68.90;;;;;;5037987;28;20033;-68
2021/04/21 03:42:25;;;;;;;23.60;13.70;;;6.10;68.70;;;;;;5038353;28;20022;-68
2021/04/21 03:44:52;;;;;;;24.23;13.48;;;6.10;68.70;;;;;;5064478;28;20021;-71
2021/04/21 03:47:18;;;;;;;24.75;15.57;;;6.00;68.70;;;;;;5051506;28;20513;-68
2021/04/21 03:49:45;;;;;;;26.90;14.70;;;6.00;68.70;;;;;;5052045;28;20033;-68
2021/04/21 03:52:12;;;;;;;27.15;13.98;;;5.90;68.90;;;;;;5046796;28;20504;-68
2021/04/21 03:54:40;;;;;;;22.25;13.98;;;5.90;69.20;;;;;;5031524;28;20451;-68
2021/04/21 03:57:08;;;;;;;25.30;14.48;;;5.90;69.80;;;;;;5048426;28;20052;-68
2021/04/21 03:59:36;;;;;;;26.50;13.80;;;5.90;69.40;;;;;;5052013;28;20025;-68
2021/04/21 04:02:06;;;;;;;25.35;14.63;;;5.90;69.40;;;;;;5051904;28;20060;-68
2021/04/21 04:04:39;;;;;;;23.45;14.13;;;5.90;69.20;;;;;;5051128;28;20033;-68
2021/04/21 04:07:09;;;;;;;22.70;13.88;;;5.90;69.10;;;;;;5048431;28;20033;-67
2021/04/21 04:09:35;;;;;;;22.15;13.80;;;5.90;69.00;;;;;;5051521;28;20029;-68
2021/04/21 04:12:05;;;;;;;19.85;12.25;;;5.90;68.80;;;;;;5051585;28;20031;-68
2021/04/21 04:14:33;;;;;;;19.83;11.60;;;5.80;68.80;;;;;;5067512;28;20032;-68
2021/04/21 04:17:00;;;;;;;19.65;12.27;;;5.70;68.90;;;;;;5051418;28;20526;-68
2021/04/21 04:19:27;;;;;;;18.00;11.23;;;5.60;69.20;;;;;;5051544;28;20068;-68
2021/04/21 04:22:03;;;;;;;17.65;11.23;;;5.50;69.10;;;;;;5045513;28;20038;-68
2021/04/21 04:24:33;;;;;;;19.83;11.73;;;5.50;69.70;;;;;;5042327;28;20114;-68
2021/04/21 04:27:00;;;;;;;18.15;11.60;;;5.40;69.20;;;;;;5052050;28;20021;-68
2021/04/21 04:29:27;;;;;;;17.92;10.95;;;5.40;69.40;;;;;;5051663;28;20643;-68
2021/04/21 04:31:53;;;;;;;19.42;11.63;;;5.40;69.50;;;;;;5051785;28;20044;-68
2021/04/21 04:34:21;;;;;;;20.50;11.70;;;5.40;69.50;;;;;;5050987;28;20024;-68
2021/04/21 04:36:47;;;;;;;21.40;11.95;;;5.40;69.50;;;;;;5048727;28;20021;-68
2021/04/21 04:39:14;;;;;;;21.63;13.30;;;5.40;69.50;;;;;;5042767;28;20490;-67
2021/04/21 04:41:40;;;;;;;19.85;11.75;;;5.40;69.50;;;;;;5058865;28;20024;-68
2021/04/21 04:44:07;;;;;;;20.38;12.30;;;5.40;69.50;;;;;;5044254;28;20116;-68
2021/04/21 04:46:39;;;;;;;20.88;11.85;;;5.50;69.50;;;;;;5046416;28;20381;-69
2021/04/21 04:49:09;;;;;;;23.60;12.98;;;5.50;69.50;;;;;;5047457;28;20536;-68
2021/04/21 04:51:45;;;;;;;19.40;12.52;;;5.50;69.30;;;;;;5051279;28;20060;-68
2021/04/21 04:54:13;;;;;;;19.13;11.60;;;5.40;69.30;;;;;;5048977;28;20112;-68
2021/04/21 04:56:43;;;;;;;21.65;12.63;;;5.30;69.30;;;;;;5050786;28;20120;-68
2021/04/21 04:59:09;;;;;;;20.95;12.25;;;5.30;69.90;;;;;;5051048;28;20025;-68
2021/04/21 05:01:48;;;;;;;17.73;11.40;;;5.30;69.40;;;;;;5049977;28;20021;-68
2021/04/21 05:04:17;;;;;;;22.80;11.95;;;5.20;69.70;;;;;;5042238;28;20028;-68
2021/04/21 05:06:59;;;;;;;22.13;12.98;;;5.20;69.80;;;;;;5051862;28;20029;-68
2021/04/21 05:09:28;;;;;;;;;;;5.30;70.20;;;;;;5050648;28;20102;-68
2021/04/21 05:11:57;;;;;;;19.08;12.15;;;5.50;69.50;;;;;;5048907;28;19918;-67
2021/04/21 05:14:24;;;;;;;20.60;11.38;;;5.60;69.60;;;;;;5037146;28;20083;-67
2021/04/21 05:16:55;;;;;;;22.42;11.90;;;5.80;69.50;;;;;;5050901;28;20659;-68
2021/04/21 05:19:43;;;;;;;19.57;11.87;;;5.90;69.60;;;;;;5051118;28;20029;-67
2021/04/21 05:23:02;;;;;;;21.02;11.48;;;6.00;69.40;;;;;;5067001;28;20482;-68
2021/04/21 05:25:46;;;;;;;18.42;11.27;;;6.10;69.40;;;;;;4967457;28;20045;-68
2021/04/21 05:28:29;;;;;;;20.95;12.15;;;6.20;69.10;;;;;;4973816;28;20034;-68
2021/04/21 05:31:28;;;;;;;20.27;11.80;;;6.30;69.10;;;;;;5032559;28;20120;-68
2021/04/21 05:34:18;;;;;;;21.13;12.00;;;6.40;69.00;;;;;;5048870;28;20057;-68
2021/04/21 05:37:22;;;;;;;20.65;12.20;;;6.40;69.00;;;;;;5050123;28;20512;-68
2021/04/21 05:40:21;;;;;;;17.77;10.60;;;6.50;68.90;;;;;;5032350;28;20080;-70
2021/04/21 05:43:20;;;;;;;19.90;11.68;;;6.50;68.80;;;;;;5054793;28;20068;-68
2021/04/21 05:45:56;;;;;;;19.40;11.35;;;6.50;68.90;;;;;;5033618;28;20033;-68
2021/04/21 05:48:52;;;;;;;21.27;12.00;;;6.60;69.00;;;;;;5050095;28;20036;-68
2021/04/21 05:51:46;;;;;;;18.05;11.18;;;6.60;69.00;;;;;;5050011;28;20021;-68
2021/04/21 05:54:33;;;;;;;19.77;11.40;;;6.70;69.10;;;;;;5049759;28;20119;-67
2021/04/21 05:57:15;;;;;;;21.13;12.45;;;6.80;69.20;;;;;;5042747;28;20047;-67
2021/04/21 05:59:40;;;;;;;17.88;10.90;;;6.90;69.10;;;;;;5059912;28;20565;-69
2021/04/21 06:02:06;;;;;;;19.95;11.02;;;7.00;68.80;;;;;;5051228;28;20028;-68
2021/04/21 06:04:32;;;;;;;20.83;12.20;;;7.10;68.90;;;;;;5047762;28;20025;-68
2021/04/21 06:07:09;;;;;;;22.75;11.55;;;7.20;69.00;;;;;;5049570;28;20045;-68
2021/04/21 06:09:37;;;;;;;20.05;11.85;;;7.30;69.00;;;;;;5051773;28;20028;-68
2021/04/21 06:12:11;;;;;;;18.63;11.85;;;7.40;68.80;;;;;;5060126;28;20367;-68
2021/04/21 06:14:42;;;;;;;24.15;11.07;;;7.50;68.90;;;;;;5053211;28;20398;-68
2021/04/21 06:17:08;;;;;;;19.20;11.90;;;7.50;68.90;;;;;;5066288;28;20037;-68
2021/04/21 06:19:34;;;;;;;22.30;12.85;;;7.60;68.90;;;;;;5049982;28;20387;-68
2021/04/21 06:22:00;;;;;;;22.05;12.63;;;7.60;69.00;;;;;;5048070;28;20036;-69
2021/04/21 06:24:28;;;;;;;22.27;13.10;;;7.80;69.30;;;;;;5049272;28;20025;-69
2021/04/21 06:27:11;;;;;;;20.67;13.20;;;7.80;69.10;;;;;;5049621;28;20378;-68
2021/04/21 06:29:39;;;;;;;29.23;15.73;;;8.00;69.00;;;;;;5049943;28;20036;-68
2021/04/21 06:32:06;;;;;;;27.45;16.35;;;8.10;68.90;;;;;;5049174;28;20477;-68
2021/04/21 06:34:33;;;;;;;25.02;14.82;;;8.20;68.60;;;;;;5049054;28;20056;-68
2021/04/21 06:36:59;;;;;;;21.83;13.73;;;8.30;68.50;;;;;;5049655;28;20496;-68
2021/04/21 06:39:28;;;;;;;20.98;13.25;;;8.50;68.50;;;;;;5049641;28;20362;-68
2021/04/21 06:42:02;;;;;;;22.67;13.38;;;8.60;68.50;;;;;;5039796;28;20632;-69
2021/04/21 06:44:46;;;;;;;21.15;13.30;;;8.90;68.60;;;;;;5045807;28;20119;-68
2021/04/21 06:47:12;;;;;;;20.88;13.10;;;9.10;68.30;;;;;;5035303;28;20032;-67
2021/04/21 06:49:38;;;;;;;20.50;13.60;;;9.30;68.30;;;;;;5049335;28;20454;-68
2021/04/21 06:52:16;;;;;;;20.88;13.20;;;9.40;68.00;;;;;;5049701;28;20154;-68
2021/04/21 06:54:42;;;;;;;23.00;13.48;;;9.70;68.00;;;;;;5048972;28;20052;-69
2021/04/21 06:57:07;;;;;;;22.75;13.25;;;10.00;67.70;;;;;;5048991;28;20068;-67
2021/04/21 06:59:33;;;;;;;20.25;12.65;;;10.20;67.30;;;;;;5049630;28;20041;-68
2021/04/21 07:01:59;;;;;;;19.35;12.82;;;10.40;67.20;;;;;;5040667;28;20036;-68
2021/04/21 07:04:24;;;;;;;20.08;12.15;;;10.70;66.80;;;;;;5030285;28;20152;-68
2021/04/21 07:06:50;;;;;;;21.23;12.20;;;10.90;66.80;;;;;;5051247;28;20029;-68
2021/04/21 07:09:21;;;;;;;20.98;13.23;;;11.20;66.60;;;;;;5046181;28;20393;-68
2021/04/21 07:12:01;;;;;;;19.23;12.60;;;11.40;66.10;;;;;;5048660;28;20520;-68
2021/04/21 07:14:30;;;;;;;19.73;13.18;;;11.60;65.80;;;;;;5042584;28;20060;-68
2021/04/21 07:16:57;;;;;;;20.35;12.60;;;11.70;65.50;;;;;;5045004;28;20043;-67
2021/04/21 07:19:25;;;;;;;21.38;12.55;;;12.00;65.70;;;;;;5049311;28;20037;-68
2021/04/21 07:21:51;;;;;;;18.50;12.57;;;12.20;65.40;;;;;;5046945;28;20090;-68
2021/04/21 07:24:26;;;;;;;22.45;13.25;;;12.50;65.20;;;;;;5069263;28;20068;-68
2021/04/21 07:26:53;;;;;;;20.08;13.05;;;12.60;64.30;;;;;;5036858;28;20095;-68
2021/04/21 07:29:21;;;;;;;22.23;13.10;;;12.70;63.90;;;;;;5063583;28;20055;-68
2021/04/21 07:31:47;;;;;;;20.17;13.10;;;12.80;63.80;;;;;;5045541;28;20075;-68
2021/04/21 07:34:25;;;;;;;18.90;12.60;;;13.00;64.20;;;;;;5065694;28;20072;-68
2021/04/21 07:36:51;;;;;;;20.17;13.40;;;13.30;64.10;;;;;;5033013;28;20075;-68
2021/04/21 07:39:16;;;;;;;17.90;12.32;;;13.50;62.90;;;;;;5033447;28;20030;-68
2021/04/21 07:41:48;;;;;;;21.33;13.10;;;13.60;62.60;;;;;;5067157;28;20028;-68
2021/04/21 07:44:36;;;;;;;22.10;11.63;;;13.90;62.30;;;;;;5041756;28;20029;-68
2021/04/21 07:47:07;;;;;;;22.02;12.80;;;14.00;61.90;;;;;;5044368;28;20052;-68
2021/04/21 07:49:39;;;;;;;20.75;12.63;;;14.20;61.80;;;;;;5069223;28;20075;-68
2021/04/21 07:52:06;;;;;;;24.17;14.37;;;14.40;61.00;;;;;;5052670;28;20029;-69
2021/04/21 07:54:35;;;;;;;19.75;13.25;;;14.50;61.10;;;;;;5049394;28;20269;-68
2021/04/21 07:57:15;;;;;;;16.90;11.73;;;14.70;60.50;;;;;;5050285;28;20100;-69
2021/04/21 07:59:43;;;;;;;19.10;12.25;;;15.00;61.30;;;;;;5072620;28;20026;-68
2021/04/21 08:02:16;;;;;;;20.30;12.93;;;15.30;60.60;;;;;;5072130;28;20051;-68
2021/04/21 08:04:47;;;;;;;17.35;11.60;;;15.60;60.30;;;;;;5071854;28;20036;-68
2021/04/21 08:07:23;;;;;;;17.58;12.18;;;16.10;60.30;;;;;;5067288;28;20029;-68
2021/04/21 08:09:50;;;;;;;17.98;11.90;;;16.60;58.90;;;;;;5072113;28;20029;-67
2021/04/21 08:12:17;;;;;;;21.63;11.93;;;16.70;57.30;;;;;;5068590;28;20090;-68
2021/04/21 08:14:58;;;;;;;18.70;13.38;;;16.80;57.40;;;;;;5068860;28;20079;-68
2021/04/21 08:17:24;;;;;;;16.52;11.90;;;16.80;56.00;;;;;;5069028;28;20047;-68
2021/04/21 08:19:55;;;;;;;21.95;14.05;;;16.80;56.70;;;;;;5052014;28;20032;-67
2021/04/21 08:22:29;;;;;;;18.90;12.02;;;17.00;56.90;;;;;;5068731;28;20118;-68
2021/04/21 08:24:58;;;;;;;16.88;12.23;;;17.20;56.50;;;;;;5068051;28;20063;-68
2021/04/21 08:27:25;;;;;;;18.88;12.35;;;17.40;56.10;;;;;;5067734;28;20513;-68
2021/04/21 08:29:51;;;;;;;18.60;11.75;;;17.50;55.40;;;;;;5051816;28;20108;-68
2021/04/21 08:32:24;;;;;;;17.08;10.80;;;17.80;56.20;;;;;;5051810;28;20466;-68
2021/04/21 08:34:51;;;;;;;19.08;12.77;;;18.10;56.10;;;;;;5050093;28;20060;-68
2021/04/21 08:37:18;;;;;;;19.38;12.00;;;18.40;54.00;;;;;;5051656;28;20018;-68
2021/04/21 08:39:45;;;;;;;20.25;12.05;;;18.40;53.00;;;;;;5051726;28;20074;-68
2021/04/21 08:42:12;;;;;;;21.77;12.18;;;18.40;53.10;;;;;;5076425;28;20809;-67
2021/04/21 08:44:43;;;;;;;16.52;10.68;;;18.60;53.90;;;;;;5067277;28;20123;-68
2021/04/21 08:47:16;;;;;;;14.02;9.68;;;19.10;54.20;;;;;;5051394;28;20079;-68
2021/04/21 08:49:43;;;;;;;16.58;10.63;;;19.70;53.40;;;;;;5051577;28;20057;-68
2021/04/21 08:52:15;;;;;;;14.77;9.98;;;20.40;52.60;;;;;;5051330;28;20025;-68
2021/04/21 08:54:46;;;;;;;17.52;10.52;;;21.00;51.20;;;;;;5050863;28;20386;-68
2021/04/21 08:57:12;;;;;;;16.23;9.05;;;21.40;49.70;;;;;;5051197;28;20028;-67
2021/04/21 08:59:42;;;;;;;14.57;8.32;;;21.90;48.80;;;;;;5051377;28;20063;-68
2021/04/21 09:02:11;;;;;;;12.40;7.32;;;22.60;47.30;;;;;;5050794;28;20033;-68
2021/04/21 09:04:36;;;;;;;12.90;7.65;;;23.30;46.30;;;;;;5050635;28;20028;-68
2021/04/21 09:07:02;;;;;;;11.85;7.72;;;24.10;44.40;;;;;;5034165;28;20079;-68
2021/04/21 09:09:29;;;;;;;13.20;6.85;;;24.60;42.40;;;;;;5044967;28;20025;-69
2021/04/21 09:11:54;;;;;;;16.65;11.15;;;25.30;41.40;;;;;;5042938;28;20029;-68
2021/04/21 09:14:20;;;;;;;12.60;8.40;;;26.00;40.40;;;;;;5050143;28;20021;-68
2021/04/21 09:16:46;;;;;;;14.10;9.50;;;26.80;39.70;;;;;;5051388;28;20017;-68
2021/04/21 09:19:14;;;;;;;16.15;8.77;;;27.50;38.90;;;;;;5067611;28;20064;-68
2021/04/21 09:21:40;;;;;;;12.77;7.75;;;28.10;37.80;;;;;;5050648;28;20025;-68
2021/04/21 09:24:11;;;;;;;14.80;8.15;;;28.80;37.00;;;;;;5049196;28;20163;-69
2021/04/21 09:26:38;;;;;;;12.45;8.77;;;29.20;36.20;;;;;;5050743;28;20060;-68
2021/04/21 09:29:04;;;;;;;13.15;9.10;;;29.50;35.20;;;;;;5050922;28;20029;-67
2021/04/21 09:31:32;;;;;;;14.55;8.52;;;29.60;35.10;;;;;;5050588;28;20017;-68
2021/04/21 09:34:10;;;;;;;15.15;8.75;;;29.80;34.70;;;;;;5050400;28;20032;-68
2021/04/21 09:36:41;;;;;;;15.05;8.82;;;29.70;34.40;;;;;;5067357;28;20027;-68
2021/04/21 09:39:25;;;;;;;15.23;9.98;;;29.60;34.60;;;;;;5050080;28;20129;-68
2021/04/21 09:41:59;;;;;;;15.68;9.82;;;29.40;34.90;;;;;;5053966;28;20048;-68
2021/04/21 09:44:28;;;;;;;12.73;9.05;;;29.10;34.70;;;;;;5039720;28;20025;-68
2021/04/21 09:46:55;;;;;;;12.32;8.35;;;28.90;35.40;;;;;;5030306;28;20026;-69
2021/04/21 09:49:34;;;;;;;11.82;9.13;;;28.70;35.60;;;;;;5030347;28;20026;-68
2021/04/21 09:52:12;;;;;;;14.18;9.93;;;28.20;35.60;;;;;;5039445;28;20501;-68
2021/04/21 09:54:44;;;;;;;14.27;8.90;;;27.70;35.70;;;;;;5049407;28;20048;-69
2021/04/21 09:57:15;;;;;;;11.75;8.65;;;27.30;36.20;;;;;;5049420;28;20029;-68
2021/04/21 09:59:42;;;;;;;9.85;7.72;;;27.00;36.40;;;;;;5050039;28;20036;-68
2021/04/21 10:02:39;;;;;;;13.35;8.65;;;26.20;37.00;;;;;;5049914;28;20029;-68
2021/04/21 10:05:35;;;;;;;10.35;7.63;;;25.80;37.50;;;;;;5049360;28;20477;-69
2021/04/21 10:08:10;;;;;;;13.50;8.77;;;25.10;38.00;;;;;;5066379;28;20420;-68
2021/04/21 10:10:37;;;;;;;14.85;9.10;;;24.60;38.20;;;;;;5052881;28;20020;-69
2021/04/21 10:13:12;;;;;;;14.10;9.75;;;24.30;38.70;;;;;;5053280;28;20017;-68
2021/04/21 10:15:39;;;;;;;11.65;7.97;;;23.90;38.00;;;;;;5048388;28;20477;-68
2021/04/21 10:18:05;;;;;;;12.88;8.98;;;23.30;38.60;;;;;;5049585;28;20033;-69
2021/04/21 10:20:31;;;;;;;12.43;9.18;;;22.80;39.20;;;;;;5048884;28;20025;-68
2021/04/21 10:22:57;;;;;;;15.05;9.25;;;22.40;39.60;;;;;;5050122;28;20029;-69
2021/04/21 10:25:23;;;;;;;13.07;8.40;;;22.10;40.20;;;;;;5039333;28;20025;-68
2021/04/21 10:27:49;;;;;;;22.58;9.57;;;22.00;40.60;;;;;;5061934;28;20071;-69
2021/04/21 10:30:15;;;;;;;16.42;10.18;;;21.80;40.60;;;;;;5049800;28;20033;-69
2021/04/21 10:32:41;;;;;;;13.13;8.82;;;21.40;39.80;;;;;;5049906;28;20022;-68
2021/04/21 10:35:08;;;;;;;12.13;8.30;;;21.00;40.00;;;;;;5048181;28;20036;-68
2021/04/21 10:37:39;;;;;;;12.88;8.55;;;20.80;40.50;;;;;;5042987;28;20466;-69
2021/04/21 10:40:06;;;;;;;11.48;8.15;;;20.70;39.70;;;;;;5037567;28;20025;-68
2021/04/21 10:42:48;;;;;;;10.20;7.20;;;20.60;40.40;;;;;;5064718;28;20394;-68
2021/04/21 10:45:17;;;;;;;14.15;7.82;;;20.60;41.00;;;;;;5062646;28;20090;-69
2021/04/21 10:47:48;;;;;;;9.65;6.55;;;20.80;40.10;;;;;;5049761;28;20640;-69
2021/04/21 10:50:32;;;;;;;11.13;6.40;;;20.70;39.50;;;;;;5049744;28;20025;-69
2021/04/21 10:52:58;;;;;;;7.78;5.95;;;20.50;39.00;;;;;;5049905;28;20529;-68
2021/04/21 10:55:38;;;;;;;8.40;5.95;;;20.10;38.40;;;;;;5048903;28;20171;-68
2021/04/21 10:58:08;;;;;;;10.30;6.70;;;19.70;39.60;;;;;;5050625;28;20397;-69
2021/04/21 11:00:35;;;;;;;13.25;7.22;;;19.30;40.70;;;;;;5052678;28;20029;-68
2021/04/21 11:03:05;;;;;;;8.38;6.32;;;19.00;41.10;;;;;;5041145;28;20167;-68
2021/04/21 11:05:40;;;;;;;9.30;6.15;;;18.80;41.40;;;;;;5033408;28;20036;-69
2021/04/21 11:08:51;;;;;;;9.68;6.90;;;18.40;41.10;;;;;;5033681;28;20021;-69
2021/04/21 11:11:43;;;;;;;8.68;5.90;;;18.10;41.80;;;;;;5057599;28;20519;-68
2021/04/21 11:14:13;;;;;;;11.88;6.35;;;17.80;43.20;;;;;;5056686;28;20836;-68
2021/04/21 11:16:40;;;;;;;11.07;6.50;;;17.80;44.10;;;;;;5052462;28;20082;-67
2021/04/21 11:19:18;;;;;;;7.47;5.93;;;17.90;43.90;;;;;;5052838;28;20370;-68
2021/04/21 11:21:45;;;;;;;10.57;6.22;;;18.00;43.80;;;;;;5046023;28;20033;-69
2021/04/21 11:24:11;;;;;;;8.70;6.25;;;18.00;43.70;;;;;;5052218;28;20128;-68
2021/04/21 11:26:44;;;;;;;10.45;6.45;;;17.90;43.20;;;;;;5052253;28;20060;-69
2021/04/21 11:29:30;;;;;;;8.38;5.80;;;17.90;43.20;;;;;;5073067;28;20078;-69
2021/04/21 11:31:56;;;;;;;11.52;6.07;;;18.10;43.60;;;;;;5052681;28;20107;-70
2021/04/21 11:34:36;;;;;;;6.75;5.30;;;18.40;43.20;;;;;;5068502;28;20025;-69
2021/04/21 11:37:09;;;;;;;7.90;6.07;;;18.70;43.40;;;;;;5051452;28;20583;-69
2021/04/21 11:39:41;;;;;;;7.75;6.00;;;19.10;42.70;;;;;;5052580;28;20162;-69
2021/04/21 11:42:22;;;;;;;8.45;5.82;;;19.40;42.80;;;;;;5061605;28;20029;-68
2021/04/21 11:44:51;;;;;;;9.07;6.38;;;19.80;41.50;;;;;;5049139;28;20039;-68
2021/04/21 11:47:50;;;;;;;10.40;6.40;;;19.90;41.50;;;;;;5065774;28;20025;-68
2021/04/21 11:50:23;;;;;;;9.07;5.80;;;20.00;41.10;;;;;;5044345;28;20469;-66
2021/04/21 11:52:57;;;;;;;5.63;4.90;;;20.10;41.50;;;;;;5052227;28;20064;-67
2021/04/21 11:55:29;;;;;;;6.57;5.32;;;20.30;41.60;;;;;;5052046;28;20580;-67
2021/04/21 11:57:55;;;;;;;7.75;6.35;;;20.50;41.20;;;;;;5053417;28;20071;-67
2021/04/21 12:00:28;;;;;;;8.75;6.18;;;20.70;41.00;;;;;;5052229;28;20056;-67
2021/04/21 12:02:54;;;;;;;11.40;5.68;;;20.70;39.60;;;;;;5065214;28;20025;-69
2021/04/21 12:05:22;;;;;;;7.68;5.80;;;20.70;40.40;;;;;;5051641;28;20053;-69
2021/04/21 12:07:48;;;;;;;7.18;5.57;;;20.90;39.60;;;;;;5051172;28;20497;-69
2021/04/21 12:10:19;;;;;;;5.88;5.25;;;21.00;39.40;;;;;;5053851;28;20461;-68
2021/04/21 12:12:44;;;;;;;6.65;4.90;;;21.10;38.30;;;;;;5048535;28;20036;-68
2021/04/21 12:15:11;;;;;;;8.20;5.35;;;21.10;38.00;;;;;;5051499;28;20108;-68
2021/04/21 12:17:58;;;;;;;9.80;5.38;;;21.20;38.20;;;;;;5067892;28;20024;-68
2021/04/21 12:20:30;;;;;;;7.75;5.43;;;21.20;37.20;;;;;;5054353;28;20107;-68
2021/04/21 12:22:56;;;;;;;6.90;5.80;;;21.20;37.10;;;;;;5054363;28;20043;-68
2021/04/21 12:25:30;;;;;;;6.90;5.38;;;21.20;37.70;;;;;;5048893;28;20033;-68
2021/04/21 12:27:59;;;;;;;6.13;5.20;;;21.30;38.90;;;;;;5051773;28;20396;-68
2021/04/21 12:30:29;;;;;;;7.05;5.07;;;21.60;38.90;;;;;;5048587;28;20492;-69
2021/04/21 12:33:14;;;;;;;6.72;5.22;;;21.70;38.50;;;;;;5044130;28;20113;-68
2021/04/21 12:35:40;;;;;;;7.25;5.10;;;21.70;38.00;;;;;;5050442;28;20052;-68
2021/04/21 12:38:06;;;;;;;6.22;4.82;;;21.40;37.30;;;;;;5051884;28;20028;-68
2021/04/21 12:40:33;;;;;;;7.95;4.80;;;21.20;38.30;;;;;;5051462;28;20033;-68
2021/04/21 12:43:15;;;;;;;7.65;4.47;;;20.90;38.50;;;;;;5051318;28;20059;-68
2021/04/21 12:45:41;;;;;;;6.68;5.13;;;20.80;38.10;;;;;;5045099;28;20026;-68
2021/04/21 12:48:27;;;;;;;5.07;4.57;;;20.70;38.40;;;;;;5064219;28;20386;-67
2021/04/21 12:50:57;;;;;;;6.18;4.30;;;20.50;38.60;;;;;;5062196;28;20032;-67
2021/04/21 12:53:32;;;;;;;5.80;4.70;;;20.40;38.60;;;;;;5050972;28;20040;-66
2021/04/21 12:56:10;;;;;;;7.95;5.25;;;20.30;38.40;;;;;;5050897;28;20112;-67
2021/04/21 12:58:42;;;;;;;8.57;5.57;;;20.20;39.30;;;;;;5044136;28;20022;-66
2021/04/21 13:01:15;;;;;;;6.80;5.25;;;19.90;39.40;;;;;;5049182;28;20066;-67
2021/04/21 13:04:17;;;;;;;7.57;5.68;;;19.80;40.10;;;;;;5051199;28;20103;-67
2021/04/21 13:06:42;;;;;;;6.15;4.90;;;19.70;39.60;;;;;;5009687;28;20478;-68
2021/04/21 13:09:19;;;;;;;7.68;5.25;;;19.50;39.90;;;;;;5041328;28;20094;-68